Time;durP1;ratioP1;P1;durP2;ratioP2;P2;SDS_P1;SDS_P2;PMS_P1;PMS_P2;Temp;Humidity;BMP_temperature;BMP_pressure;BME280_temperature;BME280_humidity;BME280_pressure;Samples;Min_cycle;Max_cycle;Signal;HPM_P1;HPM_P2
2023/12/26 00:01:59;;;;;;;4.50;1.45;;;;;;;9.46;60.93;96372.53;4974166;28;20050;-77
2023/12/26 00:04:27;;;;;;;1.85;1.00;;;;;;;9.41;61.33;96376.69;4974437;28;20100;-78
2023/12/26 00:06:59;;;;;;;1.95;1.25;;;;;;;9.37;60.68;96368.41;4973946;28;20073;-78
2023/12/26 00:09:26;;;;;;;2.13;1.30;;;;;;;9.34;61.28;96368.78;4973772;28;20051;-78
2023/12/26 00:11:54;;;;;;;15.40;9.02;;;;;;;9.30;60.65;96362.31;4974175;28;20137;-78
2023/12/26 00:14:21;;;;;;;4.35;2.47;;;;;;;9.26;59.97;96368.84;4974004;28;20070;-78
2023/12/26 00:16:49;;;;;;;6.55;2.90;;;;;;;9.22;62.01;96365.78;4973502;28;20053;-78
2023/12/26 00:19:17;;;;;;;2.78;1.55;;;;;;;9.22;64.13;96370.19;4973567;28;20047;-78
2023/12/26 00:21:44;;;;;;;2.28;1.30;;;;;;;9.21;64.23;96368.59;4974064;28;20050;-79
2023/12/26 00:24:13;;;;;;;2.83;1.30;;;;;;;9.21;63.89;96379.00;4973838;28;20090;-78
2023/12/26 00:26:42;;;;;;;2.30;1.27;;;;;;;9.19;66.00;96367.97;4973580;28;20053;-78
2023/12/26 00:29:09;;;;;;;1.48;0.98;;;;;;;9.16;63.83;96370.91;4973166;28;20043;-78
2023/12/26 00:31:40;;;;;;;2.03;1.10;;;;;;;9.14;65.55;96368.50;4973648;28;20461;-78
2023/12/26 00:34:08;;;;;;;2.70;1.42;;;;;;;9.12;63.78;96369.63;4973562;28;20050;-78
2023/12/26 00:36:36;;;;;;;3.08;1.33;;;;;;;9.11;67.07;96368.84;4973775;28;20050;-78
2023/12/26 00:39:04;;;;;;;2.08;1.48;;;;;;;9.13;67.44;96363.47;4975268;28;20102;-78
2023/12/26 00:41:33;;;;;;;4.05;1.45;;;;;;;9.08;65.42;96379.63;4974347;28;20051;-78
2023/12/26 00:44:01;;;;;;;2.13;1.13;;;;;;;9.07;68.37;96365.81;4973492;28;20050;-78
2023/12/26 00:46:28;;;;;;;3.75;1.40;;;;;;;9.10;68.94;96371.63;4973413;28;20422;-78
2023/12/26 00:48:56;;;;;;;1.63;1.00;;;;;;;9.06;66.75;96371.97;4972866;28;20046;-78
2023/12/26 00:51:24;;;;;;;2.75;1.38;;;;;;;9.02;66.27;96372.50;4973471;28;20101;-78
2023/12/26 00:53:52;;;;;;;3.75;1.35;;;;;;;8.99;66.75;96375.47;4973280;28;20588;-78
2023/12/26 00:56:21;;;;;;;2.10;1.35;;;;;;;8.96;68.33;96376.63;4972967;28;20059;-78
2023/12/26 00:58:49;;;;;;;4.13;1.85;;;;;;;8.96;70.60;96371.41;4972955;28;20078;-78
2023/12/26 01:01:17;;;;;;;2.13;1.20;;;;;;;8.93;69.81;96371.78;4973348;28;20499;-78
2023/12/26 01:03:45;;;;;;;5.00;1.90;;;;;;;8.92;70.14;96379.75;4973330;28;20424;-79
2023/12/26 01:06:14;;;;;;;3.45;1.70;;;;;;;8.90;68.50;96386.91;4972942;28;20143;-78
2023/12/26 01:08:42;;;;;;;1.98;1.10;;;;;;;8.85;66.93;96377.88;4972807;28;20592;-78
2023/12/26 01:11:10;;;;;;;2.35;1.30;;;;;;;8.84;67.81;96378.03;4973087;28;20054;-78
2023/12/26 01:13:37;;;;;;;2.67;1.35;;;;;;;8.84;68.14;96388.44;4973115;28;20046;-78
2023/12/26 01:16:07;;;;;;;3.03;1.27;;;;;;;8.83;67.07;96384.22;4972949;28;20282;-78
2023/12/26 01:18:34;;;;;;;2.00;1.30;;;;;;;8.82;67.82;96380.00;4972670;28;20102;-78
2023/12/26 01:21:03;;;;;;;4.40;1.50;;;;;;;8.81;69.80;96388.78;4973077;28;20117;-78
2023/12/26 01:23:30;;;;;;;2.88;1.27;;;;;;;8.81;67.04;96386.19;4973406;28;20047;-78
2023/12/26 01:25:59;;;;;;;4.55;1.15;;;;;;;8.79;66.38;96391.56;4972931;28;20055;-78
2023/12/26 01:28:27;;;;;;;3.45;1.60;;;;;;;8.79;66.99;96394.19;4972745;28;20054;-78
2023/12/26 01:30:55;;;;;;;5.78;1.60;;;;;;;8.81;69.02;96386.19;4972968;28;20102;-78
2023/12/26 01:33:23;;;;;;;2.75;1.05;;;;;;;8.83;67.55;96390.25;4972977;28;20440;-78
2023/12/26 01:35:51;;;;;;;1.00;0.90;;;;;;;8.86;69.56;96389.09;4972661;28;20058;-78
2023/12/26 01:38:18;;;;;;;3.00;1.05;;;;;;;8.87;70.31;96383.69;4972374;28;20082;-78
2023/12/26 01:40:46;;;;;;;3.95;1.30;;;;;;;8.90;70.01;96379.94;4973010;28;20481;-78
2023/12/26 01:43:13;;;;;;;3.88;1.00;;;;;;;8.90;69.60;96387.75;4972891;28;20484;-78
2023/12/26 01:45:41;;;;;;;3.67;1.15;;;;;;;8.91;70.60;96389.34;4972877;28;20086;-78
2023/12/26 01:48:10;;;;;;;2.70;1.10;;;;;;;8.91;70.14;96394.56;4972722;28;20054;-78
2023/12/26 01:50:39;;;;;;;2.85;1.30;;;;;;;8.90;70.41;96392.94;4972190;28;20078;-78
2023/12/26 01:53:07;;;;;;;2.35;1.10;;;;;;;8.92;71.05;96387.56;4972688;28;20505;-78
2023/12/26 01:55:36;;;;;;;2.55;0.80;;;;;;;8.92;70.78;96401.38;4972884;28;20047;-78
2023/12/26 01:58:05;;;;;;;4.43;1.48;;;;;;;8.92;73.40;96401.38;4972916;28;20082;-78
2023/12/26 02:00:32;;;;;;;2.25;1.13;;;;;;;8.93;72.11;96407.41;4972017;28;20059;-78
2023/12/26 02:03:00;;;;;;;2.05;1.23;;;;;;;8.93;72.60;96402.19;4972521;28;20047;-78
2023/12/26 02:05:28;;;;;;;1.38;0.93;;;;;;;8.92;72.78;96409.19;4972886;28;20137;-78
2023/12/26 02:07:57;;;;;;;5.40;2.13;;;;;;;8.92;73.54;96404.00;4972601;28;20055;-78
2023/12/26 02:10:25;;;;;;;2.75;1.02;;;;;;;8.93;72.86;96408.19;4972186;28;20055;-78
2023/12/26 02:12:52;;;;;;;2.05;1.30;;;;;;;8.93;72.51;96404.78;4972586;28;20050;-78
2023/12/26 02:15:20;;;;;;;4.15;1.20;;;;;;;8.92;71.67;96409.19;4972909;28;20055;-78
2023/12/26 02:17:49;;;;;;;3.08;1.38;;;;;;;8.90;70.90;96402.53;4976234;28;20046;-78
2023/12/26 02:20:18;;;;;;;1.90;1.10;;;;;;;8.87;71.95;96401.88;4975705;28;20057;-78
2023/12/26 02:22:46;;;;;;;1.17;0.90;;;;;;;8.87;71.74;96407.09;4976259;28;20055;-78
2023/12/26 02:25:16;;;;;;;2.08;0.95;;;;;;;8.85;71.51;96403.88;4984744;28;20031;-78
2023/12/26 02:27:44;;;;;;;3.15;1.20;;;;;;;8.86;72.50;96399.50;4978155;28;20331;-78
2023/12/26 02:30:13;;;;;;;3.05;1.35;;;;;;;8.87;72.33;96399.28;4975744;28;20051;-78
2023/12/26 02:32:42;;;;;;;1.17;1.05;;;;;;;8.88;73.10;96400.13;4987240;28;20047;-78
2023/12/26 02:35:10;;;;;;;3.05;1.33;;;;;;;8.87;73.27;96398.50;4994398;28;20275;-78
2023/12/26 02:37:39;;;;;;;2.70;1.23;;;;;;;8.87;72.38;96395.88;4988011;28;20047;-78
2023/12/26 02:40:08;;;;;;;1.73;1.00;;;;;;;8.86;71.86;96395.09;4975583;28;20142;-78
2023/12/26 02:42:37;;;;;;;1.80;1.40;;;;;;;8.85;73.17;96400.47;4975851;28;20046;-78
2023/12/26 02:45:06;;;;;;;2.65;0.93;;;;;;;8.83;71.63;96394.63;4975649;28;20055;-78
2023/12/26 02:47:33;;;;;;;3.38;1.10;;;;;;;8.79;70.08;96401.16;4975638;28;20062;-78
2023/12/26 02:50:01;;;;;;;2.03;1.25;;;;;;;8.76;72.60;96401.50;4975375;28;20053;-78
2023/12/26 02:52:29;;;;;;;2.08;1.38;;;;;;;8.76;72.58;96399.72;4975471;28;20505;-78
2023/12/26 02:54:56;;;;;;;1.65;1.10;;;;;;;8.74;71.75;96406.88;4975515;28;20085;-78
2023/12/26 02:57:24;;;;;;;4.50;1.30;;;;;;;8.71;71.71;96414.25;4975030;28;20059;-78
2023/12/26 02:59:53;;;;;;;5.32;1.30;;;;;;;8.69;70.91;96418.81;4974968;28;20053;-78
2023/12/26 03:02:20;;;;;;;3.25;1.10;;;;;;;8.65;72.95;96411.34;4975471;28;20270;-78
2023/12/26 03:04:48;;;;;;;2.33;1.15;;;;;;;8.65;72.29;96432.13;4975760;28;20055;-78
2023/12/26 03:07:16;;;;;;;2.97;1.52;;;;;;;8.64;72.67;96414.94;4975143;28;20050;-78
2023/12/26 03:09:43;;;;;;;1.77;1.45;;;;;;;8.64;71.36;96419.31;4974713;28;20135;-78
2023/12/26 03:12:11;;;;;;;4.97;1.45;;;;;;;8.61;70.20;96415.25;4975302;28;20054;-77
2023/12/26 03:14:38;;;;;;;2.25;1.10;;;;;;;8.57;71.12;96419.22;4975340;28;20050;-78
2023/12/26 03:17:07;;;;;;;2.30;1.10;;;;;;;8.55;71.68;96410.78;4974984;28;20054;-79
2023/12/26 03:19:35;;;;;;;3.78;1.42;;;;;;;8.53;71.04;96420.53;4974755;28;20058;-77
2023/12/26 03:22:04;;;;;;;3.25;1.23;;;;;;;8.51;71.31;96414.69;4974941;28;20452;-79
2023/12/26 03:24:32;;;;;;;3.08;1.20;;;;;;;8.48;70.19;96424.63;4974989;28;20572;-79
2023/12/26 03:27:01;;;;;;;3.63;1.10;;;;;;;8.44;69.79;96424.19;4974443;28;20110;-78
2023/12/26 03:29:28;;;;;;;1.95;1.05;;;;;;;8.40;69.72;96422.88;4974619;28;20054;-79
2023/12/26 03:31:56;;;;;;;2.75;1.33;;;;;;;8.37;70.49;96416.19;4974986;28;20043;-79
2023/12/26 03:34:24;;;;;;;3.10;1.70;;;;;;;8.36;69.96;96424.19;4974673;28;20134;-79
2023/12/26 03:36:52;;;;;;;2.80;1.25;;;;;;;8.35;70.65;96427.75;4974530;28;20074;-79
2023/12/26 03:39:20;;;;;;;3.20;1.30;;;;;;;8.34;70.53;96431.34;4974379;28;20047;-78
2023/12/26 03:41:49;;;;;;;2.08;1.58;;;;;;;8.34;70.73;96433.94;4974684;28;20047;-79
2023/12/26 03:44:17;;;;;;;4.22;1.52;;;;;;;8.33;70.90;96438.34;4974623;28;20055;-79
2023/12/26 03:46:44;;;;;;;2.90;1.27;;;;;;;8.36;71.26;96432.00;4974392;28;20098;-78
2023/12/26 03:49:12;;;;;;;3.38;1.52;;;;;;;8.33;70.79;96442.72;4973874;28;20094;-79
2023/12/26 03:51:41;;;;;;;2.53;0.95;;;;;;;8.35;71.97;96448.56;4974760;28;20057;-78
2023/12/26 03:54:09;;;;;;;1.92;1.10;;;;;;;8.37;71.47;96454.38;4974690;28;20078;-79
2023/12/26 03:56:36;;;;;;;3.03;1.02;;;;;;;8.36;70.78;96451.00;4974067;28;20082;-79
2023/12/26 03:59:05;;;;;;;1.63;1.13;;;;;;;8.35;70.49;96451.97;4974005;28;20109;-79
2023/12/26 04:01:32;;;;;;;4.63;1.73;;;;;;;8.35;71.52;96451.16;4974180;28;20086;-78
2023/12/26 04:04:01;;;;;;;3.72;1.15;;;;;;;8.37;70.84;96457.00;4974183;28;20051;-79
2023/12/26 04:06:28;;;;;;;2.78;1.63;;;;;;;8.37;70.78;96450.00;4982860;28;20061;-80
2023/12/26 04:08:57;;;;;;;4.97;1.67;;;;;;;8.38;70.05;96451.63;4985634;28;20047;-79
2023/12/26 04:11:25;;;;;;;2.90;1.40;;;;;;;8.38;72.05;96451.63;4985556;28;20055;-79
2023/12/26 04:13:52;;;;;;;3.90;1.20;;;;;;;8.39;72.03;96452.44;4978629;28;20115;-79
2023/12/26 04:16:20;;;;;;;2.95;1.50;;;;;;;8.39;71.37;96455.03;4973680;28;20093;-79
2023/12/26 04:18:47;;;;;;;3.35;1.42;;;;;;;8.39;71.92;96452.44;4973662;28;20081;-79
2023/12/26 04:21:15;;;;;;;2.65;1.15;;;;;;;8.39;71.11;96458.44;4979689;23;20057;-78
2023/12/26 04:23:43;;;;;;;2.65;1.25;;;;;;;8.38;70.99;96451.63;4973915;28;20061;-78
2023/12/26 04:26:12;;;;;;;1.48;0.90;;;;;;;8.38;71.27;96456.03;4973848;28;20057;-78
2023/12/26 04:28:40;;;;;;;2.72;0.90;;;;;;;8.39;71.55;96455.03;4973274;28;20133;-78
2023/12/26 04:31:07;;;;;;;2.42;1.25;;;;;;;8.39;71.28;96447.22;4975381;28;20051;-79
2023/12/26 04:33:35;;;;;;;2.45;0.98;;;;;;;8.38;71.90;96454.22;4974883;28;20043;-79
2023/12/26 04:36:05;;;;;;;2.38;1.00;;;;;;;8.39;70.69;96447.22;4973789;28;20505;-78
2023/12/26 04:38:33;;;;;;;3.70;1.20;;;;;;;8.40;72.44;96448.88;4973023;28;20051;-79
2023/12/26 04:41:00;;;;;;;1.90;1.15;;;;;;;8.42;71.82;96447.75;4973579;28;20043;-78
2023/12/26 04:43:29;;;;;;;1.88;1.23;;;;;;;8.42;72.30;96460.75;4973905;28;20129;-79
2023/12/26 04:45:57;;;;;;;4.70;1.33;;;;;;;8.44;73.51;96450.19;4973620;28;20109;-78
2023/12/26 04:48:24;;;;;;;2.85;1.40;;;;;;;8.47;74.10;96462.00;4973275;28;20054;-78
2023/12/26 05:06:58;;;;;;;3.03;1.30;;;;;;;8.45;72.64;96486.38;5778797;23;20839;-88
2023/12/26 05:09:25;;;;;;;3.38;1.15;;;;;;;8.48;73.04;96482.63;4979389;28;20062;-89
2023/12/26 05:11:53;;;;;;;2.65;1.10;;;;;;;8.48;72.96;96481.81;4978095;28;20046;-87
2023/12/26 05:14:20;;;;;;;1.63;1.00;;;;;;;8.45;71.19;96480.38;4977519;28;20046;-85
2023/12/26 05:16:49;;;;;;;7.00;1.58;;;;;;;8.42;70.75;96488.53;4977718;28;20129;-84
2023/12/26 05:19:17;;;;;;;6.18;1.67;;;;;;;8.41;70.16;96486.88;4978515;28;20125;-87
2023/12/26 05:21:44;;;;;;;4.57;1.20;;;;;;;8.42;71.93;96489.31;4977251;28;20054;-86
2023/12/26 05:24:13;;;;;;;1.05;1.05;;;;;;;8.46;73.07;96487.19;4978052;28;20085;-87
2023/12/26 05:26:43;;;;;;;3.80;1.15;;;;;;;8.47;71.58;96496.63;4977773;28;20050;-87
2023/12/26 05:29:11;;;;;;;2.85;1.30;;;;;;;8.48;72.50;96489.63;4978035;28;20055;-88
2023/12/26 05:31:39;;;;;;;3.08;0.75;;;;;;;8.47;71.24;96483.63;4977564;28;20507;-85
2023/12/26 05:34:08;;;;;;;4.75;1.05;;;;;;;8.47;71.54;96491.41;4977639;28;20051;-86
2023/12/26 05:36:36;;;;;;;1.70;1.20;;;;;;;8.49;73.05;96492.06;4978011;28;20047;-85
2023/12/26 05:39:04;;;;;;;2.13;1.10;;;;;;;8.50;72.95;96501.47;4977958;28;20046;-81
2023/12/26 05:41:33;;;;;;;2.83;1.33;;;;;;;8.52;72.49;96498.69;4976192;28;20051;-86
2023/12/26 05:44:01;;;;;;;1.13;0.88;;;;;;;8.51;72.54;96497.91;4977093;28;20134;-87
2023/12/26 05:46:29;;;;;;;4.32;1.02;;;;;;;8.50;71.32;96505.84;4977031;28;20142;-87
2023/12/26 05:48:57;;;;;;;4.43;1.48;;;;;;;8.50;72.29;96511.84;4977097;28;20090;-86
2023/12/26 05:51:26;;;;;;;1.35;0.98;;;;;;;8.50;72.49;96509.25;4980757;28;20082;-86
2023/12/26 05:53:53;;;;;;;2.60;1.00;;;;;;;8.51;72.69;96503.09;4980596;28;20047;-86
2023/12/26 05:56:21;;;;;;;5.28;1.33;;;;;;;8.51;72.77;96507.50;4980141;28;20423;-88
2023/12/26 05:58:50;;;;;;;1.90;1.05;;;;;;;8.50;72.91;96505.84;4980778;28;20054;-88
2023/12/26 06:01:18;;;;;;;2.22;1.52;;;;;;;8.49;73.16;96515.44;4980712;28;20463;-87
2023/12/26 06:03:46;;;;;;;3.35;1.25;;;;;;;8.51;74.75;96508.28;4980747;28;20074;-86
2023/12/26 06:06:14;;;;;;;5.05;1.77;;;;;;;8.51;72.71;96523.88;4979977;28;20046;-82
2023/12/26 06:08:42;;;;;;;2.00;1.15;;;;;;;8.50;71.42;96513.66;4979739;28;20062;-87
2023/12/26 06:11:10;;;;;;;2.92;0.90;;;;;;;8.49;71.97;96523.25;4980296;28;20061;-88
2023/12/26 06:13:38;;;;;;;4.45;1.58;;;;;;;8.48;72.51;96532.00;4980355;28;20411;-86
2023/12/26 06:16:07;;;;;;;4.40;1.25;;;;;;;8.48;71.56;96532.00;4979946;28;20051;-86
2023/12/26 06:18:35;;;;;;;2.25;1.00;;;;;;;8.48;71.05;96539.81;4979728;28;20074;-84
2023/12/26 06:21:03;;;;;;;2.53;1.60;;;;;;;8.47;70.88;96538.19;4979857;28;20054;-82
2023/12/26 06:23:31;;;;;;;3.78;1.20;;;;;;;8.48;70.71;96539.81;4979526;28;20447;-82
2023/12/26 06:25:59;;;;;;;2.65;1.50;;;;;;;8.49;71.28;96540.66;4978707;28;20141;-88
2023/12/26 06:28:26;;;;;;;4.10;1.33;;;;;;;8.53;72.63;96542.72;4979944;28;20057;-88
2023/12/26 06:30:54;;;;;;;3.80;1.58;;;;;;;8.56;73.45;96538.97;4980394;28;20133;-84
2023/12/26 06:33:23;;;;;;;4.35;2.05;;;;;;;8.57;71.22;96543.19;4980325;28;20054;-85
2023/12/26 06:35:51;;;;;;;1.73;1.55;;;;;;;8.59;72.79;96549.84;4979645;28;20442;-83
2023/12/26 06:38:19;;;;;;;2.08;1.30;;;;;;;8.62;74.37;96548.69;4979345;28;20050;-86
2023/12/26 06:40:46;;;;;;;3.28;1.48;;;;;;;8.61;73.77;96547.88;4979195;28;20145;-84
2023/12/26 06:43:14;;;;;;;7.38;1.67;;;;;;;8.61;72.73;96534.88;4978931;28;20475;-85
2023/12/26 06:45:42;;;;;;;3.70;1.23;;;;;;;8.60;71.95;96537.66;4979611;28;20131;-82
2023/12/26 06:48:10;;;;;;;3.17;1.35;;;;;;;8.61;74.04;96534.88;4979762;28;20051;-80
2023/12/26 06:50:39;;;;;;;3.28;1.20;;;;;;;8.63;73.95;96552.91;4979308;28;20048;-86
2023/12/26 06:53:06;;;;;;;3.25;1.42;;;;;;;8.61;72.59;96550.47;4983841;28;20077;-89
2023/12/26 06:55:34;;;;;;;3.53;1.20;;;;;;;8.62;72.62;96562.50;4992005;28;20070;-88
2023/12/26 06:58:02;;;;;;;4.63;1.55;;;;;;;8.60;72.45;96569.66;4991891;28;20081;-84
2023/12/26 07:00:29;;;;;;;3.97;1.58;;;;;;;8.59;70.88;96573.25;4983717;28;20137;-87
2023/12/26 07:02:57;;;;;;;3.25;1.80;;;;;;;8.59;71.27;96573.25;4982584;28;20047;-87
2023/12/26 07:05:25;;;;;;;6.68;2.08;;;;;;;8.60;71.79;96574.88;4983932;28;20047;-88
2023/12/26 07:07:54;;;;;;;3.72;1.52;;;;;;;8.64;73.82;96581.34;4983815;28;20054;-84
2023/12/26 07:10:21;;;;;;;1.98;1.58;;;;;;;8.68;73.93;96583.59;4984055;28;20086;-85
2023/12/26 07:12:49;;;;;;;3.38;1.63;;;;;;;8.72;71.65;96579.69;4982806;28;20631;-87
2023/12/26 07:15:18;;;;;;;4.15;1.70;;;;;;;8.72;71.70;96580.47;4982529;28;20085;-87
2023/12/26 07:17:45;;;;;;;3.05;1.13;;;;;;;8.74;71.42;96583.72;4983075;28;20144;-85
2023/12/26 07:20:13;;;;;;;3.67;1.40;;;;;;;8.76;71.21;96591.38;4982542;28;20047;-86
2023/12/26 07:22:41;;;;;;;3.58;1.30;;;;;;;8.76;69.67;96593.97;4981447;28;20050;-87
2023/12/26 07:25:10;;;;;;;5.70;1.58;;;;;;;8.75;71.24;96597.56;4981857;28;20065;-82
2023/12/26 07:27:38;;;;;;;5.05;1.92;;;;;;;8.73;69.88;96610.72;4981395;28;20076;-83
2023/12/26 07:30:07;;;;;;;3.20;1.58;;;;;;;8.74;71.40;96601.13;4981316;28;20106;-84
2023/12/26 07:32:34;;;;;;;4.38;1.63;;;;;;;8.74;70.18;96595.94;4981095;28;20459;-86
2023/12/26 07:35:02;;;;;;;3.55;1.38;;;;;;;8.73;71.83;96600.31;4981132;28;20464;-82
2023/12/26 07:37:32;;;;;;;9.52;2.25;;;;;;;8.75;72.35;96607.97;4981219;28;20423;-84
2023/12/26 07:40:00;;;;;;;3.63;1.63;;;;;;;8.75;72.20;96618.38;4981530;28;20066;-86
2023/12/26 07:42:29;;;;;;;4.20;1.27;;;;;;;8.74;71.91;96609.72;4982864;28;20165;-81
2023/12/26 07:44:57;;;;;;;4.20;1.33;;;;;;;8.73;72.14;96626.34;4981064;28;20154;-81
2023/12/26 07:47:24;;;;;;;3.63;1.35;;;;;;;8.72;70.46;96634.28;4980835;28;20082;-81
2023/12/26 07:49:52;;;;;;;1.75;0.98;;;;;;;8.72;72.64;96642.91;4982453;28;20082;-86
2023/12/26 07:52:20;;;;;;;2.45;1.25;;;;;;;8.74;72.69;96647.94;4983321;28;20070;-83
2023/12/26 07:54:48;;;;;;;4.80;1.83;;;;;;;8.75;72.10;96646.97;4979934;28;20053;-80
2023/12/26 07:57:15;;;;;;;4.18;1.50;;;;;;;8.78;73.66;96654.44;4979850;28;20415;-80
2023/12/26 07:59:44;;;;;;;7.25;1.67;;;;;;;8.77;70.78;96658.81;4980238;28;20047;-84
2023/12/26 08:02:12;;;;;;;4.82;1.70;;;;;;;8.75;70.06;96655.59;4979212;28;20061;-85
2023/12/26 08:04:40;;;;;;;3.08;1.73;;;;;;;8.77;70.24;96660.63;4980040;28;20062;-88
2023/12/26 08:07:08;;;;;;;5.55;2.30;;;;;;;8.77;69.18;96671.03;4979826;28;20464;-79
2023/12/26 08:09:36;;;;;;;6.57;1.70;;;;;;;8.77;70.47;96668.44;4980330;28;20508;-79
2023/12/26 08:12:04;;;;;;;5.30;1.63;;;;;;;8.81;72.03;96669.69;4984399;28;20077;-87
2023/12/26 08:14:32;;;;;;;2.85;1.35;;;;;;;8.83;71.21;96667.72;4988162;28;20089;-81
2023/12/26 08:17:01;;;;;;;3.53;1.42;;;;;;;8.82;70.19;96679.94;4988120;28;20051;-86
2023/12/26 08:19:29;;;;;;;4.35;1.73;;;;;;;8.82;70.54;96672.13;4979685;28;20061;-81
2023/12/26 08:21:57;;;;;;;3.20;1.58;;;;;;;8.84;70.41;96679.78;4962870;28;20102;-77
2023/12/26 08:24:25;;;;;;;5.10;1.73;;;;;;;8.86;73.13;96686.41;4975569;28;20055;-79
2023/12/26 08:26:53;;;;;;;3.22;1.48;;;;;;;8.87;72.75;96700.22;4976258;28;20051;-80
2023/12/26 08:29:21;;;;;;;7.78;1.73;;;;;;;8.86;70.22;96688.22;4977294;28;20051;-79
2023/12/26 08:31:48;;;;;;;6.95;1.60;;;;;;;8.84;70.17;96682.38;4964327;28;20138;-80
2023/12/26 08:34:17;;;;;;;6.15;2.05;;;;;;;8.86;73.76;96689.03;4957211;29;20055;-79
2023/12/26 08:36:45;;;;;;;4.68;1.67;;;;;;;8.90;74.31;96689.50;4958457;28;20062;-80
2023/12/26 08:39:12;;;;;;;4.22;1.75;;;;;;;8.92;74.28;96699.72;4977744;28;20185;-79
2023/12/26 08:41:40;;;;;;;3.53;1.83;;;;;;;8.93;72.50;96698.75;4959085;29;20115;-82
2023/12/26 08:44:08;;;;;;;7.68;2.00;;;;;;;8.94;71.45;96706.38;4972044;28;20047;-81
2023/12/26 08:46:35;;;;;;;5.55;1.73;;;;;;;8.96;71.51;96704.41;4966034;28;20138;-81
2023/12/26 08:49:03;;;;;;;3.35;1.58;;;;;;;8.96;71.89;96694.00;4958027;28;20051;-83
2023/12/26 08:51:37;;;;;;;3.25;1.75;;;;;;;8.97;71.22;96711.25;4957388;29;20059;-78
2023/12/26 08:54:05;;;;;;;3.17;1.60;;;;;;;8.96;69.50;96699.22;4963670;28;20051;-81
2023/12/26 08:56:33;;;;;;;3.55;1.20;;;;;;;8.97;70.09;96706.06;4979413;28;20527;-83
2023/12/26 08:59:00;;;;;;;3.47;1.20;;;;;;;8.97;69.98;96718.25;4979247;28;20082;-79
2023/12/26 09:01:28;;;;;;;3.58;1.52;;;;;;;8.99;69.91;96718.91;4976658;28;20057;-79
2023/12/26 09:03:56;;;;;;;4.88;1.50;;;;;;;8.99;68.70;96714.50;4977233;28;20143;-80
2023/12/26 09:06:23;;;;;;;3.67;2.22;;;;;;;9.01;68.87;96724.75;4962253;28;20760;-80
2023/12/26 09:08:52;;;;;;;5.57;2.17;;;;;;;9.03;68.38;96734.00;4956642;28;20082;-77
2023/12/26 09:11:20;;;;;;;2.78;1.33;;;;;;;9.07;68.03;96737.06;4956414;29;20055;-81
2023/12/26 09:13:47;;;;;;;3.00;1.10;;;;;;;9.10;70.13;96741.16;4955876;28;20447;-79
2023/12/26 09:16:14;;;;;;;4.43;1.70;;;;;;;9.14;67.64;96748.44;4957831;28;20058;-80
2023/12/26 09:18:42;;;;;;;3.33;1.38;;;;;;;9.18;67.41;96741.94;4956272;29;20579;-77
2023/12/26 09:21:10;;;;;;;3.28;1.70;;;;;;;9.25;67.98;96747.25;4956656;29;20134;-79
2023/12/26 09:23:38;;;;;;;5.50;1.65;;;;;;;9.31;68.25;96743.97;4958315;29;20098;-79
2023/12/26 09:26:07;;;;;;;5.93;2.13;;;;;;;9.34;68.72;96741.03;4957452;29;20059;-81
2023/12/26 09:28:35;;;;;;;3.25;1.40;;;;;;;9.35;67.89;96744.44;4964448;28;20552;-78
2023/12/26 09:31:03;;;;;;;4.53;1.58;;;;;;;9.35;68.77;96760.88;4970187;28;20129;-84
2023/12/26 09:33:31;;;;;;;31.88;21.42;;;;;;;9.34;68.08;96756.66;4959693;29;20507;-79
2023/12/26 09:35:58;;;;;;;15.65;6.75;;;;;;;9.35;67.32;96758.25;4960380;29;20102;-78
2023/12/26 09:38:26;;;;;;;5.18;2.50;;;;;;;9.38;67.29;96762.31;4976916;28;20046;-79
2023/12/26 09:40:54;;;;;;;5.35;2.10;;;;;;;9.38;68.35;96773.56;4979382;28;20129;-81
2023/12/26 09:43:23;;;;;;;24.15;12.68;;;;;;;9.36;66.74;96780.72;4967305;28;20512;-78
2023/12/26 09:45:50;;;;;;;22.55;12.77;;;;;;;9.36;68.10;96772.91;4966278;28;20111;-78
2023/12/26 09:48:18;;;;;;;7.15;2.30;;;;;;;9.35;67.75;96784.28;4963252;29;20079;-81
2023/12/26 09:50:47;;;;;;;3.35;1.77;;;;;;;9.33;66.05;96783.66;4962916;28;20067;-80
2023/12/26 09:53:18;;;;;;;5.78;1.98;;;;;;;9.31;68.50;96783.00;4961690;29;20047;-77
2023/12/26 09:55:46;;;;;;;3.03;1.60;;;;;;;9.28;66.14;96785.97;4961287;29;20051;-82
2023/12/26 09:58:13;;;;;;;3.30;1.50;;;;;;;9.27;67.62;96781.72;4961617;28;20166;-79
2023/12/26 10:00:43;;;;;;;13.63;5.65;;;;;;;9.26;66.87;96791.31;4967426;28;20105;-79
2023/12/26 10:03:11;;;;;;;41.35;21.00;;;;;;;9.26;66.25;96793.13;4981425;28;20122;-80
2023/12/26 10:05:38;;;;;;;17.88;9.77;;;;;;;9.26;67.05;96782.72;4981097;28;20089;-85
2023/12/26 10:08:06;;;;;;;9.68;3.55;;;;;;;9.26;67.11;96787.91;4979667;28;20078;-80
2023/12/26 10:10:34;;;;;;;2.70;1.52;;;;;;;9.25;66.61;96781.91;4961180;28;20055;-83
2023/12/26 10:13:02;;;;;;;5.10;1.83;;;;;;;9.27;68.63;96789.53;4969637;28;20067;-82
2023/12/26 10:15:29;;;;;;;4.65;1.42;;;;;;;9.28;68.23;96788.56;4980678;28;20089;-78
2023/12/26 10:17:58;;;;;;;4.78;1.40;;;;;;;9.28;66.58;96788.56;4979048;28;20055;-78
2023/12/26 10:20:26;;;;;;;5.95;1.98;;;;;;;9.27;66.53;96784.31;4962208;28;20051;-78
2023/12/26 10:22:53;;;;;;;3.75;1.33;;;;;;;9.27;67.61;96784.31;4961409;28;20130;-78
2023/12/26 10:25:21;;;;;;;2.13;1.17;;;;;;;9.26;68.08;96787.91;4961201;29;20152;-79
2023/12/26 10:27:55;;;;;;;4.88;1.45;;;;;;;9.28;68.68;96780.75;4963632;28;20431;-79
2023/12/26 10:30:23;;;;;;;4.72;1.73;;;;;;;9.29;68.13;96792.78;4970616;28;20053;-78
2023/12/26 10:32:59;;;;;;;6.03;1.77;;;;;;;9.30;68.00;96793.59;4983643;28;20059;-81
2023/12/26 10:35:28;;;;;;;42.08;23.90;;;;;;;9.32;69.54;96800.25;4983022;28;20106;-78
2023/12/26 10:37:57;;;;;;;5.72;2.92;;;;;;;9.32;67.17;96789.84;4982790;28;20513;-79
2023/12/26 10:40:25;;;;;;;6.13;1.70;;;;;;;9.32;67.09;96797.66;4974525;28;20051;-79
2023/12/26 10:42:53;;;;;;;3.65;1.60;;;;;;;9.34;67.53;96798.31;4965789;28;20134;-78
2023/12/26 10:45:21;;;;;;;3.58;1.40;;;;;;;9.34;66.14;96794.91;4971821;28;20115;-79
2023/12/26 10:47:50;;;;;;;5.07;1.48;;;;;;;9.33;66.98;96793.25;4970248;28;20111;-78
2023/12/26 10:50:20;;;;;;;7.45;1.50;;;;;;;9.35;66.55;96786.91;4966203;28;20066;-78
2023/12/26 10:52:52;;;;;;;4.03;1.80;;;;;;;9.36;65.87;96783.31;4965220;29;20119;-79
2023/12/26 10:55:22;;;;;;;3.60;1.45;;;;;;;9.39;68.53;96775.16;4965702;28;20047;-78
2023/12/26 10:57:50;;;;;;;5.70;1.88;;;;;;;9.45;68.62;96779.69;4965088;28;20075;-79
2023/12/26 11:00:18;;;;;;;6.70;1.95;;;;;;;9.51;68.02;96773.00;4966522;28;20078;-79
2023/12/26 11:02:45;;;;;;;4.47;1.27;;;;;;;9.57;67.16;96776.72;4964428;28;20075;-78
2023/12/26 11:05:12;;;;;;;2.97;1.73;;;;;;;9.57;68.08;96768.91;4970484;28;20043;-78
2023/12/26 11:07:41;;;;;;;15.20;8.93;;;;;;;9.56;68.26;96778.50;4978228;28;20098;-78
2023/12/26 11:10:07;;;;;;;6.28;2.35;;;;;;;9.53;67.26;96786.66;4973366;28;20051;-80
2023/12/26 11:12:34;;;;;;;4.45;1.30;;;;;;;9.52;66.59;96777.22;4974340;28;20055;-79
2023/12/26 11:15:01;;;;;;;6.10;2.25;;;;;;;9.53;67.91;96781.44;4984361;28;20118;-80
2023/12/26 11:18:22;;;;;;;4.20;1.50;;;;;;;9.54;68.00;96805.72;5210563;23;20067;-81
2023/12/26 11:44:12;;;;;;;6.78;1.73;;;;;;;9.57;67.62;96820.97;5184746;23;20037;-81
2023/12/26 11:46:42;;;;;;;6.63;2.72;;;;;;;9.54;68.30;96816.94;5000697;28;20039;-80
2023/12/26 11:52:34;;;;;;;3.67;1.38;;;;;;;9.49;68.67;96809.63;5192426;23;20070;-80
2023/12/26 11:55:10;;;;;;;4.70;1.55;;;;;;;9.52;70.34;96803.28;4958443;28;20095;-81
2023/12/26 12:01:15;;;;;;;4.90;1.60;;;;;;;9.56;66.88;96801.16;4961443;28;20107;-80
2023/12/26 12:03:43;;;;;;;3.05;1.58;;;;;;;9.60;69.22;96805.00;4959502;28;20035;-80
2023/12/26 12:09:08;;;;;;;4.63;1.50;;;;;;;9.65;66.33;96807.94;4961188;28;20035;-80
2023/12/26 12:11:51;;;;;;;3.40;1.20;;;;;;;9.70;66.88;96821.25;4961186;28;20054;-80
2023/12/26 12:14:36;;;;;;;5.57;1.88;;;;;;;9.72;67.49;96828.91;4960814;28;20099;-79
2023/12/26 12:17:19;;;;;;;5.38;1.55;;;;;;;9.65;66.38;96823.56;4959396;28;20032;-80
2023/12/26 12:19:48;;;;;;;2.33;1.45;;;;;;;9.59;67.10;96811.22;4959703;29;20075;-80
2023/12/26 12:22:23;;;;;;;2.05;1.30;;;;;;;9.54;68.20;96811.72;4952374;29;20048;-80
2023/12/26 12:24:52;;;;;;;4.32;1.25;;;;;;;9.57;68.42;96808.75;4949216;29;20048;-80
2023/12/26 12:27:23;;;;;;;3.35;1.20;;;;;;;9.57;68.18;96806.16;4960866;28;20036;-81
2023/12/26 12:29:59;;;;;;;5.40;1.48;;;;;;;9.60;67.51;96811.06;4959866;28;20064;-80
2023/12/26 12:32:32;;;;;;;25.05;12.18;;;;;;;9.62;67.84;96800.44;4944461;29;20262;-80
2023/12/26 12:35:14;;;;;;;14.75;7.47;;;;;;;9.63;67.59;96800.28;4959585;29;20074;-81
2023/12/26 12:37:41;;;;;;;2.40;1.50;;;;;;;9.65;67.80;96797.50;4959040;28;20051;-80